Hovedside
METAR-TAF:

METAR-TAF

Lufthavner :

Sørkjosen lufthavn

Sørkjosen, Norge

breddegrad: 69-47N, lengdegrad: 020-58E, høyde over havet: 0 m

Gjeldene værobservasjon

Denne rapporten ble laget for 46 minutter siden, klokken 15:50 UTC
Vind 7 kt fra Vest
Temperatur 16°C
Luftfuktighet 48%
Trykk 1011 hPa
Sikt 10 km eller mer

METAR: ENSR 241550Z AUTO 28007KT 9999 SCT064/// 16/05 Q1011 RMK WIND RWY 32 29005KT WIND 1119FT 27014KT

Tid: 18:36 (16:36 UTC)

Varsel

Denne rapporten ble laget for 5 timer og 36 minutter siden, klokken 11:00 UTC
Varsel gyldig fra 24. klokken 12 UTC til 24. klokken 19 UTC
Vind 6 kt fra skiftende retning
Sikt 10 km eller mer
Spredte skyer i en høyde av 6000 ft
Midlertidig
fra 24. klokken 12 UTC til 24. klokken 17 UTC
Vind 10 kt fra Nordvest

TAF: ENSR 241100Z 2412/2419 VRB06KT 9999 SCT060 TEMPO 2412/2417 31010KT

Værobservasjoner og værvarsel for over 4000 flyplasser (METAR- og TAF-rapporter).

Tilgjengelige stasjoner er representert av de røde og gule prikkene på kartet.

Hold musepekeren over prikken for å se navnet på stasjonen.

Klikk så for å se værobservasjoner og -varsler.

For å forandre kartet kan du klikke på den grønne knappen med svart kryss for å zoome inn, på den grønne knappen med strek for å zoome ut, eller på de grønne pilene for å se tilstøtende kart.


METAR-TAF: